Time;durP1;ratioP1;P1;durP2;ratioP2;P2;SDS_P1;SDS_P2;PMS_P1;PMS_P2;Temp;Humidity;BMP_temperature;BMP_pressure;BME280_temperature;BME280_humidity;BME280_pressure;Samples;Min_cycle;Max_cycle;Signal;HPM_P1;HPM_P2
2022/01/29 00:03:03;;;;;;;15.45;10.07;;;;;;;;;;10454948;28;20025;-64
2022/01/29 00:08:04;;;;;;;15.63;10.93;;;;;;;;;;10455424;28;20063;-65
2022/01/29 00:13:05;;;;;;;14.80;10.13;;;;;;;;;;10454203;28;20482;-64
2022/01/29 00:18:06;;;;;;;17.93;10.37;;;;;;;;;;10453671;28;20029;-65
2022/01/29 00:23:07;;;;;;;15.13;10.10;;;;;;;;;;10448080;28;20462;-64
2022/01/29 00:28:08;;;;;;;19.47;9.90;;;;;;;;;;10449663;28;20046;-63
2022/01/29 00:33:10;;;;;;;22.25;9.48;;;;;;;;;;10451508;28;20450;-64
2022/01/29 00:38:10;;;;;;;18.80;10.23;;;;;;;;;;10452138;28;20032;-63
2022/01/29 00:43:11;;;;;;;15.88;9.65;;;;;;;;;;10453114;28;20094;-63
2022/01/29 00:48:11;;;;;;;16.67;9.57;;;;;;;;;;10453199;28;20427;-64
2022/01/29 00:53:11;;;;;;;21.08;11.57;;;;;;;;;;10451260;28;20024;-62
2022/01/29 00:58:12;;;;;;;27.63;13.07;;;;;;;;;;10452072;28;20024;-63
2022/01/29 01:03:12;;;;;;;18.83;12.30;;;;;;;;;;10453467;28;20439;-65
2022/01/29 01:08:13;;;;;;;18.07;11.33;;;;;;;;;;10453561;28;20411;-65
2022/01/29 01:13:13;;;;;;;19.65;12.25;;;;;;;;;;10453124;28;20544;-65
2022/01/29 01:18:14;;;;;;;22.38;12.30;;;;;;;;;;10453697;28;20025;-65
2022/01/29 01:23:14;;;;;;;21.27;11.63;;;;;;;;;;10453286;28;20460;-64
2022/01/29 01:28:15;;;;;;;17.85;11.30;;;;;;;;;;10449516;28;20464;-65
2022/01/29 01:33:15;;;;;;;27.98;11.85;;;;;;;;;;10449340;28;20033;-64
2022/01/29 01:43:16;;;;;;;17.65;10.60;;;;;;;;;;10452098;28;20485;-65
2022/01/29 01:48:17;;;;;;;19.70;10.80;;;;;;;;;;10451858;28;20392;-64
2022/01/29 01:53:18;;;;;;;16.33;10.38;;;;;;;;;;10451350;28;20466;-65
2022/01/29 01:58:18;;;;;;;20.27;10.55;;;;;;;;;;10450842;28;20025;-65
2022/01/29 02:03:19;;;;;;;15.38;10.10;;;;;;;;;;10451712;28;20053;-66
2022/01/29 02:08:19;;;;;;;15.33;10.03;;;;;;;;;;10450930;28;20044;-65
2022/01/29 02:13:19;;;;;;;17.57;9.77;;;;;;;;;;10451068;28;20488;-65
2022/01/29 02:18:20;;;;;;;15.82;10.35;;;;;;;;;;10450830;28;20941;-65
2022/01/29 02:23:20;;;;;;;17.37;10.27;;;;;;;;;;10450595;28;20021;-64
2022/01/29 02:28:23;;;;;;;14.23;10.05;;;;;;;;;;10450893;28;21147;-65
2022/01/29 02:33:24;;;;;;;13.60;10.05;;;;;;;;;;10447253;28;20032;-61
2022/01/29 02:38:26;;;;;;;19.30;10.77;;;;;;;;;;10450568;28;20029;-64
2022/01/29 02:43:32;;;;;;;16.67;10.57;;;;;;;;;;10446691;28;20388;-65
2022/01/29 02:48:33;;;;;;;16.17;10.30;;;;;;;;;;10450176;28;20025;-64
2022/01/29 02:53:33;;;;;;;17.00;10.07;;;;;;;;;;10449438;28;20376;-64
2022/01/29 02:58:33;;;;;;;16.23;10.17;;;;;;;;;;10449685;28;20456;-64
2022/01/29 03:03:34;;;;;;;16.37;10.23;;;;;;;;;;10449022;28;20485;-65
2022/01/29 03:08:35;;;;;;;14.55;9.73;;;;;;;;;;10449263;28;20496;-65
2022/01/29 03:13:35;;;;;;;14.35;9.45;;;;;;;;;;10449322;28;20045;-64
2022/01/29 03:18:35;;;;;;;15.60;9.87;;;;;;;;;;10448938;28;20032;-64
2022/01/29 03:23:36;;;;;;;13.03;8.83;;;;;;;;;;10449368;28;20783;-64
2022/01/29 03:28:36;;;;;;;15.27;9.57;;;;;;;;;;10449407;28;20480;-64
2022/01/29 03:33:37;;;;;;;15.60;10.10;;;;;;;;;;10449517;28;20572;-64
2022/01/29 03:38:40;;;;;;;15.98;9.40;;;;;;;;;;10448891;28;20464;-65
2022/01/29 03:43:52;;;;;;;13.50;9.18;;;;;;;;;;10446197;28;20116;-65
2022/01/29 03:48:52;;;;;;;14.32;9.27;;;;;;;;;;10445679;28;20060;-65
2022/01/29 03:53:53;;;;;;;11.97;8.80;;;;;;;;;;10448656;28;20112;-65
2022/01/29 03:58:53;;;;;;;12.90;8.37;;;;;;;;;;10448335;28;20438;-66
2022/01/29 04:03:53;;;;;;;11.47;8.53;;;;;;;;;;10448283;28;20025;-65
2022/01/29 04:08:54;;;;;;;12.53;8.50;;;;;;;;;;10448187;28;20029;-65
2022/01/29 04:13:55;;;;;;;12.20;8.40;;;;;;;;;;10447648;28;20048;-65
2022/01/29 04:18:55;;;;;;;12.82;8.95;;;;;;;;;;10448712;28;20056;-65
2022/01/29 04:23:55;;;;;;;11.83;7.83;;;;;;;;;;10455324;28;20033;-65
2022/01/29 04:28:56;;;;;;;12.07;8.35;;;;;;;;;;10455660;28;20480;-65
2022/01/29 04:33:56;;;;;;;15.30;8.50;;;;;;;;;;10455207;28;20108;-65
2022/01/29 04:38:56;;;;;;;11.60;8.30;;;;;;;;;;10454867;28;20442;-65
2022/01/29 04:43:57;;;;;;;13.27;8.57;;;;;;;;;;10455235;28;20138;-65
2022/01/29 04:48:57;;;;;;;13.85;8.55;;;;;;;;;;10451310;28;20452;-64
2022/01/29 04:53:58;;;;;;;12.97;8.67;;;;;;;;;;10454153;28;20029;-64
2022/01/29 04:58:58;;;;;;;11.40;7.70;;;;;;;;;;10449728;28;20492;-64
2022/01/29 05:03:58;;;;;;;13.32;8.43;;;;;;;;;;10454307;28;20104;-62
2022/01/29 05:08:59;;;;;;;12.27;7.75;;;;;;;;;;10453735;28;20043;-65
2022/01/29 05:14:00;;;;;;;14.50;7.93;;;;;;;;;;10453408;28;20041;-66
2022/01/29 05:29:39;;;;;;;10.57;7.80;;;;;;;;;;10453647;28;20029;-66
2022/01/29 05:34:40;;;;;;;11.20;7.60;;;;;;;;;;10452714;28;20025;-66
2022/01/29 05:39:40;;;;;;;10.50;7.47;;;;;;;;;;10452304;28;20468;-65
2022/01/29 05:44:41;;;;;;;10.60;7.53;;;;;;;;;;10452563;28;20526;-65
2022/01/29 05:49:41;;;;;;;10.43;7.20;;;;;;;;;;10452360;28;20450;-65
2022/01/29 05:54:42;;;;;;;10.82;7.57;;;;;;;;;;10452126;28;20033;-65
2022/01/29 05:59:42;;;;;;;12.37;7.03;;;;;;;;;;10449111;28;20116;-65
2022/01/29 06:04:42;;;;;;;11.32;7.40;;;;;;;;;;10449568;28;20971;-65
2022/01/29 06:09:45;;;;;;;12.53;7.50;;;;;;;;;;10452316;28;20028;-65
2022/01/29 06:14:45;;;;;;;9.93;6.65;;;;;;;;;;10451468;28;21008;-65
2022/01/29 06:19:47;;;;;;;8.10;6.47;;;;;;;;;;10451569;28;20028;-65
2022/01/29 06:24:49;;;;;;;10.88;7.00;;;;;;;;;;10451472;28;20446;-65
2022/01/29 06:29:49;;;;;;;8.68;6.53;;;;;;;;;;10451706;28;20047;-65
2022/01/29 06:34:49;;;;;;;9.83;6.93;;;;;;;;;;10451132;28;20025;-65
2022/01/29 06:39:50;;;;;;;8.48;6.70;;;;;;;;;;10450920;28;20537;-64
2022/01/29 06:44:50;;;;;;;9.05;7.10;;;;;;;;;;10450325;28;20108;-64
2022/01/29 06:49:50;;;;;;;11.43;7.27;;;;;;;;;;10450238;28;20586;-65
2022/01/29 06:54:51;;;;;;;8.10;6.13;;;;;;;;;;10449712;28;20477;-63
2022/01/29 06:59:51;;;;;;;8.87;6.60;;;;;;;;;;10449923;28;20450;-64
2022/01/29 07:04:52;;;;;;;7.90;6.33;;;;;;;;;;10446607;28;20950;-63
2022/01/29 07:09:53;;;;;;;8.13;6.20;;;;;;;;;;10446379;28;20474;-64
2022/01/29 07:14:53;;;;;;;8.10;6.25;;;;;;;;;;10450427;28;20049;-65
2022/01/29 07:19:55;;;;;;;8.40;6.30;;;;;;;;;;10447554;28;20511;-65
2022/01/29 07:24:55;;;;;;;10.18;6.75;;;;;;;;;;10449194;28;20415;-65
2022/01/29 07:29:55;;;;;;;8.53;6.00;;;;;;;;;;10448843;28;20025;-64
2022/01/29 07:34:56;;;;;;;11.20;6.60;;;;;;;;;;10447975;28;20458;-64
2022/01/29 07:39:56;;;;;;;10.27;5.90;;;;;;;;;;10448653;28;20763;-64
2022/01/29 07:44:57;;;;;;;8.75;6.05;;;;;;;;;;10449199;28;20429;-63
2022/01/29 07:49:57;;;;;;;13.60;6.22;;;;;;;;;;10447710;28;20527;-64
2022/01/29 07:54:58;;;;;;;7.47;5.80;;;;;;;;;;10449868;28;20039;-63
2022/01/29 07:59:58;;;;;;;9.55;5.47;;;;;;;;;;10456020;28;20434;-63
2022/01/29 08:04:58;;;;;;;7.77;5.73;;;;;;;;;;10455728;28;20127;-65
2022/01/29 08:09:59;;;;;;;8.23;6.60;;;;;;;;;;10451108;28;20488;-63
2022/01/29 08:14:59;;;;;;;8.70;6.07;;;;;;;;;;10451209;28;20778;-65
2022/01/29 08:20:00;;;;;;;7.20;5.22;;;;;;;;;;10455186;28;20525;-65
2022/01/29 08:25:02;;;;;;;8.02;5.88;;;;;;;;;;10454017;28;20024;-65
2022/01/29 08:30:04;;;;;;;7.55;6.15;;;;;;;;;;10456679;28;20032;-62
2022/01/29 08:35:04;;;;;;;9.00;5.40;;;;;;;;;;10455190;28;20419;-64
2022/01/29 08:40:06;;;;;;;8.35;5.40;;;;;;;;;;10454494;28;20021;-64
2022/01/29 08:45:08;;;;;;;7.43;5.78;;;;;;;;;;10454181;28;20060;-64
2022/01/29 08:50:10;;;;;;;7.00;5.32;;;;;;;;;;10455140;28;20484;-63
2022/01/29 08:55:10;;;;;;;7.57;5.60;;;;;;;;;;10454540;28;20033;-60
2022/01/29 09:00:11;;;;;;;8.02;5.95;;;;;;;;;;10453625;28;20457;-63
2022/01/29 09:05:12;;;;;;;7.28;5.18;;;;;;;;;;10453280;28;20032;-63
2022/01/29 09:10:13;;;;;;;7.38;5.20;;;;;;;;;;10453788;28;20052;-62
2022/01/29 09:15:14;;;;;;;8.25;5.90;;;;;;;;;;10449331;28;20136;-63
2022/01/29 09:20:15;;;;;;;7.97;5.38;;;;;;;;;;10448265;28;20593;-63
2022/01/29 09:25:15;;;;;;;8.32;5.63;;;;;;;;;;10452119;28;20107;-64
2022/01/29 09:30:15;;;;;;;7.83;5.33;;;;;;;;;;10452655;28;20028;-65
2022/01/29 09:35:17;;;;;;;12.07;5.37;;;;;;;;;;10452720;28;20493;-64
2022/01/29 09:40:17;;;;;;;20.13;7.10;;;;;;;;;;10453238;28;20454;-63
2022/01/29 09:45:21;;;;;;;21.90;8.63;;;;;;;;;;10452214;28;20596;-63
2022/01/29 09:50:21;;;;;;;23.17;9.30;;;;;;;;;;10451606;28;20045;-63
2022/01/29 09:55:23;;;;;;;25.80;9.23;;;;;;;;;;10452024;28;20060;-63
2022/01/29 10:00:24;;;;;;;22.63;10.35;;;;;;;;;;10450943;28;20446;-63
2022/01/29 10:05:35;;;;;;;21.45;9.88;;;;;;;;;;10450704;28;20037;-63
2022/01/29 10:10:41;;;;;;;32.60;12.60;;;;;;;;;;10448608;28;20378;-69
2022/01/29 10:15:41;;;;;;;38.58;20.50;;;;;;;;;;10449329;28;20041;-64
2022/01/29 10:20:43;;;;;;;45.50;21.90;;;;;;;;;;10424713;28;20025;-66
2022/01/29 10:25:50;;;;;;;54.63;28.58;;;;;;;;;;10412792;28;20280;-65
2022/01/29 10:30:51;;;;;;;63.33;32.92;;;;;;;;;;10415519;28;20095;-66
2022/01/29 10:35:55;;;;;;;67.78;34.85;;;;;;;;;;10415100;28;20036;-66
2022/01/29 10:41:25;;;;;;;65.18;36.13;;;;;;;;;;10415315;28;20116;-65
2022/01/29 10:46:31;;;;;;;77.78;38.63;;;;;;;;;;10415232;28;20476;-67
2022/01/29 10:51:33;;;;;;;75.38;41.88;;;;;;;;;;10414601;28;20412;-67
2022/01/29 10:56:50;;;;;;;93.50;52.65;;;;;;;;;;10414386;28;20114;-65
2022/01/29 11:01:52;;;;;;;102.38;56.60;;;;;;;;;;10413842;28;20033;-66
2022/01/29 11:06:53;;;;;;;104.70;61.25;;;;;;;;;;10414035;28;20661;-64
2022/01/29 11:11:56;;;;;;;114.82;66.63;;;;;;;;;;10412951;28;20373;-67
2022/01/29 11:16:58;;;;;;;115.43;66.25;;;;;;;;;;10413119;28;20377;-63
2022/01/29 11:22:04;;;;;;;120.95;70.63;;;;;;;;;;10410429;28;20104;-63
2022/01/29 11:27:25;;;;;;;121.85;74.15;;;;;;;;;;10418947;28;20072;-65
2022/01/29 11:32:28;;;;;;;121.78;72.30;;;;;;;;;;10453357;28;20060;-66
2022/01/29 11:37:41;;;;;;;123.43;77.00;;;;;;;;;;10455931;28;20021;-66
2022/01/29 11:43:07;;;;;;;142.23;77.68;;;;;;;;;;10457709;28;20029;-66
2022/01/29 11:48:14;;;;;;;132.68;80.20;;;;;;;;;;10455668;28;20430;-66
2022/01/29 11:53:17;;;;;;;132.07;80.88;;;;;;;;;;10456277;28;20021;-66
2022/01/29 11:58:29;;;;;;;144.82;88.78;;;;;;;;;;10456396;28;20061;-66
2022/01/29 12:03:44;;;;;;;193.95;115.68;;;;;;;;;;10456292;28;20090;-66
2022/01/29 12:08:58;;;;;;;154.45;94.90;;;;;;;;;;10454705;28;20028;-65
2022/01/29 12:14:19;;;;;;;157.65;95.78;;;;;;;;;;10454623;28;20086;-65
2022/01/29 12:19:45;;;;;;;157.07;94.93;;;;;;;;;;10453997;28;20433;-65
2022/01/29 12:24:54;;;;;;;161.00;94.15;;;;;;;;;;10451342;28;20082;-66
2022/01/29 12:29:54;;;;;;;148.65;93.38;;;;;;;;;;10450513;28;20473;-65
2022/01/29 12:34:54;;;;;;;168.80;101.37;;;;;;;;;;10453197;28;20117;-65
2022/01/29 12:40:19;;;;;;;161.47;98.90;;;;;;;;;;10453284;28;20427;-65
2022/01/29 12:45:21;;;;;;;164.18;101.30;;;;;;;;;;10453663;28;20021;-65
2022/01/29 12:50:21;;;;;;;156.43;94.90;;;;;;;;;;10453805;28;20037;-65
2022/01/29 12:55:22;;;;;;;155.85;93.68;;;;;;;;;;10453904;28;20058;-65
2022/01/29 13:00:23;;;;;;;167.23;101.75;;;;;;;;;;10453984;28;20591;-65
2022/01/29 13:05:23;;;;;;;164.88;101.78;;;;;;;;;;10454069;28;20045;-65
2022/01/29 13:10:31;;;;;;;154.00;95.80;;;;;;;;;;10453874;28;20087;-65
2022/01/29 13:15:40;;;;;;;150.23;94.43;;;;;;;;;;10452899;28;20275;-65
2022/01/29 13:20:40;;;;;;;158.15;98.10;;;;;;;;;;10453750;28;20037;-65
2022/01/29 13:25:41;;;;;;;169.70;103.67;;;;;;;;;;10451988;28;20047;-65
2022/01/29 13:30:42;;;;;;;172.93;104.55;;;;;;;;;;10450164;28;20435;-66
2022/01/29 13:35:49;;;;;;;171.63;107.13;;;;;;;;;;10451409;28;20037;-66
2022/01/29 13:40:55;;;;;;;166.15;106.60;;;;;;;;;;10452741;28;20083;-66
2022/01/29 13:45:59;;;;;;;181.30;110.28;;;;;;;;;;10451261;28;20120;-66
2022/01/29 13:51:00;;;;;;;188.02;117.55;;;;;;;;;;10449708;28;20017;-66
2022/01/29 13:56:09;;;;;;;161.50;99.30;;;;;;;;;;10451300;28;20033;-66
2022/01/29 14:01:10;;;;;;;144.75;92.85;;;;;;;;;;10450664;28;20021;-66
2022/01/29 14:06:25;;;;;;;129.80;84.63;;;;;;;;;;10451049;28;20021;-66
2022/01/29 14:11:57;;;;;;;143.68;91.15;;;;;;;;;;10450220;28;20276;-68
2022/01/29 14:16:59;;;;;;;140.65;88.32;;;;;;;;;;10450866;28;20021;-68
2022/01/29 14:22:00;;;;;;;125.38;78.45;;;;;;;;;;10447785;28;20505;-65
2022/01/29 14:27:01;;;;;;;107.20;68.13;;;;;;;;;;10449472;28;20388;-68
2022/01/29 14:32:02;;;;;;;114.13;70.25;;;;;;;;;;10450456;28;20040;-69
2022/01/29 14:39:10;;;;;;;98.07;62.97;;;;;;;;;;10480802;28;20613;-63
2022/01/29 14:44:10;;;;;;;98.57;62.75;;;;;;;;;;10484503;28;20033;-70
2022/01/29 14:49:11;;;;;;;94.43;59.03;;;;;;;;;;10480470;28;20029;-64
2022/01/29 14:54:12;;;;;;;88.82;56.78;;;;;;;;;;10483458;28;20075;-65
2022/01/29 14:59:13;;;;;;;87.78;52.75;;;;;;;;;;10481538;28;20055;-64
2022/01/29 15:04:14;;;;;;;87.57;51.67;;;;;;;;;;10483266;28;20090;-65
2022/01/29 15:09:16;;;;;;;81.47;49.57;;;;;;;;;;10481883;28;20469;-67
2022/01/29 15:14:17;;;;;;;76.35;48.40;;;;;;;;;;10483477;28;20482;-67
2022/01/29 15:19:17;;;;;;;70.63;46.23;;;;;;;;;;10484391;28;20108;-66
2022/01/29 15:24:17;;;;;;;72.07;43.67;;;;;;;;;;10482822;28;20029;-64
2022/01/29 15:29:18;;;;;;;71.60;44.87;;;;;;;;;;10483090;28;20056;-68
2022/01/29 15:34:18;;;;;;;66.23;41.70;;;;;;;;;;10482279;28;20028;-64
2022/01/29 15:39:19;;;;;;;72.97;42.47;;;;;;;;;;10482798;28;20116;-68
2022/01/29 15:44:19;;;;;;;63.95;40.08;;;;;;;;;;10482537;28;20028;-65
2022/01/29 15:49:19;;;;;;;72.60;41.97;;;;;;;;;;10461401;28;20042;-67
2022/01/29 15:54:20;;;;;;;57.77;37.73;;;;;;;;;;10454338;28;20029;-67
2022/01/29 15:59:20;;;;;;;63.33;39.07;;;;;;;;;;10451558;28;20545;-68
2022/01/29 16:04:20;;;;;;;57.83;36.63;;;;;;;;;;10454755;28;20104;-64
2022/01/29 16:09:21;;;;;;;58.90;36.87;;;;;;;;;;10454864;28;20442;-67
2022/01/29 16:14:23;;;;;;;55.33;35.85;;;;;;;;;;10453934;28;20108;-67
2022/01/29 16:19:24;;;;;;;52.45;34.97;;;;;;;;;;10453284;28;20032;-66
2022/01/29 16:24:27;;;;;;;58.03;35.77;;;;;;;;;;10453044;28;20021;-65
2022/01/29 16:29:27;;;;;;;55.35;35.08;;;;;;;;;;10453434;28;20464;-66
2022/01/29 16:34:28;;;;;;;54.53;33.93;;;;;;;;;;10453190;28;20037;-67
2022/01/29 16:39:28;;;;;;;47.73;31.63;;;;;;;;;;10453274;28;20485;-68
2022/01/29 16:44:28;;;;;;;52.10;31.23;;;;;;;;;;10452456;28;20040;-67
2022/01/29 16:49:29;;;;;;;58.23;32.27;;;;;;;;;;10452600;28;20521;-70
2022/01/29 16:54:29;;;;;;;49.83;29.85;;;;;;;;;;10452054;28;20802;-68
2022/01/29 16:59:30;;;;;;;48.33;30.20;;;;;;;;;;10451590;28;20030;-66
2022/01/29 17:04:30;;;;;;;46.50;29.85;;;;;;;;;;10450935;28;20489;-66
2022/01/29 17:09:31;;;;;;;44.97;29.55;;;;;;;;;;10451565;28;20036;-67
2022/01/29 17:14:31;;;;;;;42.00;28.33;;;;;;;;;;10448873;28;20148;-67
2022/01/29 17:19:31;;;;;;;43.73;28.60;;;;;;;;;;10450796;28;20423;-66
2022/01/29 17:24:32;;;;;;;39.53;26.00;;;;;;;;;;10451792;28;20586;-66
2022/01/29 17:29:33;;;;;;;44.33;26.27;;;;;;;;;;10450924;28;20078;-67
2022/01/29 17:34:36;;;;;;;49.47;26.50;;;;;;;;;;10449971;28;20466;-67
2022/01/29 17:39:38;;;;;;;40.67;26.05;;;;;;;;;;10449793;28;20040;-65
2022/01/29 17:44:38;;;;;;;41.28;25.90;;;;;;;;;;10449925;28;20377;-70
2022/01/29 17:49:39;;;;;;;43.53;25.97;;;;;;;;;;10450126;28;20024;-66
2022/01/29 17:54:39;;;;;;;34.75;24.20;;;;;;;;;;10449761;28;20976;-67
2022/01/29 17:59:40;;;;;;;40.77;24.07;;;;;;;;;;10449727;28;20641;-62
2022/01/29 18:04:40;;;;;;;35.63;24.65;;;;;;;;;;10449672;28;20430;-67
2022/01/29 18:09:41;;;;;;;34.92;23.55;;;;;;;;;;10446112;28;20049;-68
2022/01/29 18:14:41;;;;;;;34.92;23.85;;;;;;;;;;10448551;28;20033;-66
2022/01/29 18:19:42;;;;;;;34.37;22.17;;;;;;;;;;10447495;28;20032;-69
2022/01/29 18:24:42;;;;;;;36.30;23.10;;;;;;;;;;10448988;28;21020;-66
2022/01/29 18:29:43;;;;;;;32.47;21.23;;;;;;;;;;10446962;28;20032;-67
2022/01/29 18:34:43;;;;;;;33.93;23.47;;;;;;;;;;10447352;28;20509;-69
2022/01/29 18:39:47;;;;;;;33.22;20.75;;;;;;;;;;10448508;28;20518;-62
2022/01/29 18:44:48;;;;;;;37.00;21.63;;;;;;;;;;10447081;28;20033;-66
2022/01/29 18:49:49;;;;;;;42.90;22.38;;;;;;;;;;10447097;28;20031;-67
2022/01/29 18:54:49;;;;;;;54.40;23.27;;;;;;;;;;10447736;28;20029;-66
2022/01/29 18:59:50;;;;;;;39.30;22.27;;;;;;;;;;10445491;28;20493;-65
2022/01/29 19:04:50;;;;;;;37.47;24.17;;;;;;;;;;10447469;28;20606;-67
2022/01/29 19:09:51;;;;;;;43.10;21.42;;;;;;;;;;10446014;28;20546;-67
2022/01/29 19:14:53;;;;;;;40.92;23.15;;;;;;;;;;10445329;28;20079;-67
2022/01/29 19:19:53;;;;;;;38.30;22.95;;;;;;;;;;10446596;28;20362;-65
2022/01/29 19:24:54;;;;;;;39.73;22.53;;;;;;;;;;10453953;28;20116;-67
2022/01/29 19:29:54;;;;;;;39.67;22.13;;;;;;;;;;10454852;28;20422;-67
2022/01/29 19:34:55;;;;;;;36.95;21.95;;;;;;;;;;10454280;28;20049;-67
2022/01/29 19:39:56;;;;;;;38.95;20.20;;;;;;;;;;10454631;28;20025;-68
2022/01/29 19:44:56;;;;;;;41.70;21.33;;;;;;;;;;10455207;28;20086;-65
2022/01/29 19:49:56;;;;;;;33.37;20.87;;;;;;;;;;10453777;28;20035;-67
2022/01/29 19:54:57;;;;;;;36.37;21.00;;;;;;;;;;10452201;28;20454;-69
2022/01/29 19:59:58;;;;;;;31.97;21.00;;;;;;;;;;10452837;28;20112;-70
2022/01/29 20:04:58;;;;;;;33.05;22.13;;;;;;;;;;10452063;28;21023;-68
2022/01/29 20:09:58;;;;;;;43.90;21.57;;;;;;;;;;10451728;28;20082;-68
2022/01/29 20:14:59;;;;;;;40.88;21.63;;;;;;;;;;10449737;28;20537;-68
2022/01/29 20:19:59;;;;;;;34.28;20.38;;;;;;;;;;10452466;28;20025;-67
2022/01/29 20:25:00;;;;;;;39.55;20.45;;;;;;;;;;10449128;28;20468;-68
2022/01/29 20:30:00;;;;;;;40.23;20.87;;;;;;;;;;10451287;28;20095;-68
2022/01/29 20:35:02;;;;;;;40.80;22.53;;;;;;;;;;10451054;28;20509;-67
2022/01/29 20:40:05;;;;;;;45.33;21.38;;;;;;;;;;10451342;28;20021;-66
2022/01/29 20:45:06;;;;;;;35.80;19.80;;;;;;;;;;10450169;28;20036;-68
2022/01/29 20:50:07;;;;;;;43.78;22.05;;;;;;;;;;10452068;28;20405;-65
2022/01/29 20:55:08;;;;;;;37.03;18.98;;;;;;;;;;10452125;28;20040;-64
2022/01/29 21:00:09;;;;;;;35.38;19.95;;;;;;;;;;10453062;28;20036;-64
2022/01/29 21:05:15;;;;;;;35.53;19.42;;;;;;;;;;10451087;28;20029;-65
2022/01/29 21:10:15;;;;;;;32.03;20.67;;;;;;;;;;10447993;28;20469;-69
2022/01/29 21:15:16;;;;;;;36.30;20.42;;;;;;;;;;10436192;28;20032;-61
2022/01/29 21:20:17;;;;;;;31.17;19.83;;;;;;;;;;10434307;28;20524;-64
2022/01/29 21:25:19;;;;;;;42.20;19.03;;;;;;;;;;10443508;28;20032;-67
2022/01/29 21:30:19;;;;;;;37.42;20.73;;;;;;;;;;10450461;28;20045;-66
2022/01/29 21:35:20;;;;;;;50.92;22.25;;;;;;;;;;10449198;28;20049;-67
2022/01/29 21:40:23;;;;;;;43.72;20.80;;;;;;;;;;10450104;28;20035;-66
2022/01/29 21:45:24;;;;;;;45.63;20.55;;;;;;;;;;10448863;28;20079;-67
2022/01/29 21:50:25;;;;;;;44.63;21.17;;;;;;;;;;10449799;28;20106;-66
2022/01/29 21:55:26;;;;;;;47.45;22.30;;;;;;;;;;10450435;28;20960;-65
2022/01/29 22:00:27;;;;;;;39.45;21.67;;;;;;;;;;10449928;28;20502;-67
2022/01/29 22:05:27;;;;;;;39.85;22.17;;;;;;;;;;10450032;28;20029;-66
2022/01/29 22:10:29;;;;;;;34.65;21.08;;;;;;;;;;10432916;28;20480;-67
2022/01/29 22:15:30;;;;;;;44.00;21.42;;;;;;;;;;10446259;28;20043;-65
2022/01/29 22:20:30;;;;;;;41.40;20.45;;;;;;;;;;10449652;28;20415;-68
2022/01/29 22:25:31;;;;;;;36.63;20.42;;;;;;;;;;10449564;28;20030;-67
2022/01/29 22:30:31;;;;;;;32.07;20.37;;;;;;;;;;10449032;28;20059;-67
2022/01/29 22:35:32;;;;;;;41.53;20.93;;;;;;;;;;10448788;28;20106;-68
2022/01/29 22:40:36;;;;;;;36.03;20.47;;;;;;;;;;10449407;28;20040;-66
2022/01/29 22:45:37;;;;;;;41.83;20.00;;;;;;;;;;10449608;28;20017;-65
2022/01/29 22:50:37;;;;;;;36.20;19.97;;;;;;;;;;10448290;28;20526;-67
2022/01/29 22:55:37;;;;;;;30.87;19.33;;;;;;;;;;10448450;28;20466;-65
2022/01/29 23:00:38;;;;;;;32.45;19.98;;;;;;;;;;10456868;28;20396;-68
2022/01/29 23:05:39;;;;;;;30.90;19.77;;;;;;;;;;10457173;28;20025;-68
2022/01/29 23:15:48;;;;;;;35.00;20.67;;;;;;;;;;10456799;28;20028;-65
2022/01/29 23:20:58;;;;;;;38.00;19.50;;;;;;;;;;10453399;28;20353;-66
2022/01/29 23:26:22;;;;;;;31.52;19.17;;;;;;;;;;10455994;28;20021;-63
2022/01/29 23:31:26;;;;;;;33.88;19.58;;;;;;;;;;10453183;28;20033;-67
2022/01/29 23:36:28;;;;;;;36.40;19.40;;;;;;;;;;10455308;28;20045;-66
2022/01/29 23:42:04;;;;;;;32.40;18.48;;;;;;;;;;10454593;28;20059;-66
2022/01/29 23:52:07;;;;;;;;;;;;;;;;;;10452538;28;20029;-68
2022/01/29 23:57:08;;;;;;;32.40;18.38;;;;;;;;;;10452251;28;19917;-67
